Time;durP1;ratioP1;P1;durP2;ratioP2;P2;SDS_P1;SDS_P2;PMS_P1;PMS_P2;Temp;Humidity;BMP_temperature;BMP_pressure;BME280_temperature;BME280_humidity;BME280_pressure;Samples;Min_cycle;Max_cycle;Signal;HPM_P1;HPM_P2
2023/05/02 00:02:06;;;;;;;;;0.00;0.00;;;;;;;;5048461;28;8825;-75
2023/05/02 00:04:31;;;;;;;;;0.00;0.00;;;;;;;;5048511;28;8789;-77
2023/05/02 00:06:57;;;;;;;;;0.00;0.00;;;;;;;;5048498;28;9535;-77
2023/05/02 00:09:22;;;;;;;;;0.00;0.00;;;;;;;;5048783;28;8812;-77
2023/05/02 00:11:47;;;;;;;;;0.00;0.00;;;;;;;;5048488;28;8817;-76
2023/05/02 00:14:12;;;;;;;;;0.00;0.00;;;;;;;;5048822;28;8797;-77
2023/05/02 00:16:38;;;;;;;;;0.00;0.00;;;;;;;;5048803;28;8831;-80
2023/05/02 00:19:03;;;;;;;;;0.00;0.00;;;;;;;;5048961;28;8810;-80
2023/05/02 00:21:28;;;;;;;;;0.00;0.00;;;;;;;;5049255;28;8797;-81
2023/05/02 00:23:55;;;;;;;;;0.00;0.00;;;;;;;;5052583;28;8797;-81
2023/05/02 00:26:21;;;;;;;;;0.00;0.00;;;;;;;;5063679;28;8821;-81
2023/05/02 00:28:46;;;;;;;;;0.00;0.00;;;;;;;;5069015;28;11412;-82
2023/05/02 00:31:11;;;;;;;;;0.00;0.00;;;;;;;;5070425;28;8789;-80
2023/05/02 00:33:36;;;;;;;;;0.00;0.00;;;;;;;;5067556;28;8827;-81
2023/05/02 00:36:02;;;;;;;;;0.00;0.00;;;;;;;;5064156;28;8848;-80
2023/05/02 00:38:27;;;;;;;;;0.00;0.00;;;;;;;;5053789;28;8828;-81
2023/05/02 00:40:52;;;;;;;;;0.00;0.00;;;;;;;;5052510;28;8820;-82
2023/05/02 00:43:18;;;;;;;;;0.00;0.00;;;;;;;;5052819;28;8797;-82
2023/05/02 00:45:45;;;;;;;;;0.00;0.00;;;;;;;;5052724;28;8812;-80
2023/05/02 00:48:10;;;;;;;;;0.00;0.00;;;;;;;;5052426;28;8801;-80
2023/05/02 00:50:42;;;;;;;;;0.00;0.00;;;;;;;;5053279;28;12140;-80
2023/05/02 00:53:08;;;;;;;;;0.00;0.00;;;;;;;;5052649;28;8829;-82
2023/05/02 00:55:33;;;;;;;;;0.00;0.00;;;;;;;;5051071;28;11677;-80
2023/05/02 00:57:59;;;;;;;;;0.00;0.00;;;;;;;;5052395;28;11372;-80
2023/05/02 01:00:30;;;;;;;;;0.00;0.00;;;;;;;;5052028;28;8785;-80
2023/05/02 01:03:05;;;;;;;;;0.00;0.00;;;;;;;;5052128;28;12138;-81
2023/05/02 01:05:42;;;;;;;;;0.00;0.00;;;;;;;;5050434;28;11427;-80
2023/05/02 01:08:23;;;;;;;;;0.00;0.00;;;;;;;;5051334;28;11379;-80
2023/05/02 01:10:54;;;;;;;;;0.00;0.00;;;;;;;;5050324;28;12118;-80
2023/05/02 01:13:22;;;;;;;;;0.00;0.00;;;;;;;;5051401;28;11372;-79
2023/05/02 01:15:47;;;;;;;;;0.00;0.00;;;;;;;;5051285;28;11416;-81
2023/05/02 01:18:14;;;;;;;;;0.00;0.00;;;;;;;;5051343;28;11477;-79
2023/05/02 01:20:41;;;;;;;;;0.00;0.00;;;;;;;;5051365;28;8863;-80
2023/05/02 01:23:22;;;;;;;;;1.00;0.00;;;;;;;;5051281;28;11473;-80
2023/05/02 01:26:01;;;;;;;;;0.00;0.00;;;;;;;;5051007;28;11404;-79
2023/05/02 01:28:46;;;;;;;;;0.00;0.00;;;;;;;;5051117;28;11364;-80
2023/05/02 01:31:15;;;;;;;;;0.00;0.00;;;;;;;;5043592;28;11446;-81
2023/05/02 01:33:40;;;;;;;;;0.00;0.00;;;;;;;;5051004;28;11372;-80
2023/05/02 01:36:06;;;;;;;;;0.00;0.00;;;;;;;;5049344;28;11438;-79
2023/05/02 01:38:33;;;;;;;;;0.25;0.00;;;;;;;;5050822;28;8785;-80
2023/05/02 01:41:02;;;;;;;;;0.00;0.00;;;;;;;;5051030;28;8804;-81
2023/05/02 01:43:28;;;;;;;;;0.00;0.00;;;;;;;;5049313;28;11440;-81
2023/05/02 01:45:56;;;;;;;;;0.00;0.00;;;;;;;;5050673;28;11414;-81
2023/05/02 01:48:22;;;;;;;;;0.00;0.00;;;;;;;;5050935;28;11388;-82
2023/05/02 01:50:49;;;;;;;;;0.00;0.00;;;;;;;;5050607;28;11356;-83
2023/05/02 01:53:15;;;;;;;;;0.00;0.00;;;;;;;;5050516;28;11468;-82
2023/05/02 01:55:42;;;;;;;;;0.00;0.00;;;;;;;;5050599;28;11489;-81
2023/05/02 01:58:08;;;;;;;;;0.00;0.00;;;;;;;;5051145;28;11399;-80
2023/05/02 02:00:33;;;;;;;;;0.00;0.00;;;;;;;;5050966;28;11375;-80
2023/05/02 02:02:59;;;;;;;;;0.00;0.00;;;;;;;;5050347;28;11364;-80
2023/05/02 02:05:25;;;;;;;;;0.00;0.00;;;;;;;;5050787;28;8813;-80
2023/05/02 02:07:51;;;;;;;;;0.00;0.00;;;;;;;;5050344;28;8777;-81
2023/05/02 02:10:16;;;;;;;;;0.00;0.00;;;;;;;;5048720;28;11407;-81
2023/05/02 02:12:44;;;;;;;;;0.00;0.00;;;;;;;;5050067;28;8781;-81
2023/05/02 02:15:15;;;;;;;;;0.00;0.00;;;;;;;;5050407;28;8816;-79
2023/05/02 02:18:07;;;;;;;;;0.00;0.00;;;;;;;;5048997;28;11437;-80
2023/05/02 02:20:33;;;;;;;;;0.00;0.00;;;;;;;;5048137;28;11566;-81
2023/05/02 02:23:01;;;;;;;;;0.00;0.00;;;;;;;;5050037;28;11463;-83
2023/05/02 02:25:26;;;;;;;;;0.00;0.00;;;;;;;;5050016;28;11438;-81
2023/05/02 02:27:52;;;;;;;;;0.00;0.00;;;;;;;;5050311;28;12107;-82
2023/05/02 02:30:17;;;;;;;;;0.00;0.00;;;;;;;;5048611;28;8805;-82
2023/05/02 02:32:43;;;;;;;;;0.00;0.00;;;;;;;;5048237;28;8825;-82
2023/05/02 02:35:11;;;;;;;;;0.00;0.00;;;;;;;;5065642;22;8892;-75
2023/05/02 02:37:55;;;;;;;;;0.00;0.00;;;;;;;;5069648;28;8991;-74
2023/05/02 02:40:29;;;;;;;;;0.00;0.00;;;;;;;;5069522;28;11344;-73
2023/05/02 02:43:02;;;;;;;;;0.00;0.00;;;;;;;;5069377;28;11348;-73
2023/05/02 02:45:47;;;;;;;;;1.00;0.00;;;;;;;;5069031;28;11461;-74
2023/05/02 02:48:26;;;;;;;;;0.00;0.00;;;;;;;;5069573;28;11354;-74
2023/05/02 02:51:01;;;;;;;;;0.00;0.00;;;;;;;;5069314;28;11522;-72
2023/05/02 02:53:32;;;;;;;;;0.00;0.00;;;;;;;;5069338;28;11435;-74
2023/05/02 02:56:00;;;;;;;;;0.00;0.00;;;;;;;;5069496;28;11385;-74
2023/05/02 02:58:28;;;;;;;;;0.00;0.00;;;;;;;;5069334;28;11437;-74
2023/05/02 03:00:54;;;;;;;;;0.00;0.00;;;;;;;;5069542;28;11355;-74
2023/05/02 03:03:27;;;;;;;;;0.00;0.00;;;;;;;;5067933;28;11410;-74
2023/05/02 03:05:53;;;;;;;;;0.00;0.00;;;;;;;;5069499;28;11376;-74
2023/05/02 03:08:18;;;;;;;;;0.00;0.00;;;;;;;;5069195;28;11355;-73
2023/05/02 03:10:44;;;;;;;;;0.00;0.00;;;;;;;;5069175;28;8786;-74
2023/05/02 03:13:09;;;;;;;;;0.00;0.00;;;;;;;;5069564;28;9517;-74
2023/05/02 03:15:46;;;;;;;;;0.00;0.00;;;;;;;;5067871;28;8829;-74
2023/05/02 03:18:12;;;;;;;;;0.00;0.00;;;;;;;;5067738;28;8833;-74
2023/05/02 03:20:37;;;;;;;;;0.00;0.00;;;;;;;;5069351;28;11348;-73
2023/05/02 03:23:02;;;;;;;;;0.00;0.00;;;;;;;;5069251;28;8991;-74
2023/05/02 03:25:27;;;;;;;;;0.00;0.00;;;;;;;;5069268;28;8892;-74
2023/05/02 03:27:55;;;;;;;;;0.00;0.00;;;;;;;;5069336;28;8790;-74
2023/05/02 03:30:20;;;;;;;;;0.00;0.00;;;;;;;;5069477;28;8770;-74
2023/05/02 03:32:46;;;;;;;;;0.00;0.00;;;;;;;;5069273;28;11409;-73
2023/05/02 03:35:11;;;;;;;;;0.00;0.00;;;;;;;;5069074;28;8823;-73
2023/05/02 03:37:37;;;;;;;;;0.00;0.00;;;;;;;;5067723;28;8811;-74
2023/05/02 03:40:02;;;;;;;;;0.00;0.00;;;;;;;;5068996;28;8783;-74
2023/05/02 03:42:28;;;;;;;;;0.00;0.00;;;;;;;;5068979;28;8933;-73
2023/05/02 03:44:56;;;;;;;;;0.00;0.00;;;;;;;;5068857;28;8821;-73
2023/05/02 03:47:21;;;;;;;;;0.00;0.00;;;;;;;;5069095;28;8814;-73
2023/05/02 03:49:47;;;;;;;;;0.00;0.00;;;;;;;;5068971;28;11389;-73
2023/05/02 03:52:12;;;;;;;;;0.00;0.00;;;;;;;;5068962;28;8843;-73
2023/05/02 03:54:37;;;;;;;;;0.00;0.00;;;;;;;;5068743;28;8782;-73
2023/05/02 03:57:03;;;;;;;;;0.00;0.00;;;;;;;;5069344;28;8902;-73
2023/05/02 03:59:31;;;;;;;;;0.00;0.00;;;;;;;;5071697;28;8933;-72
2023/05/02 04:01:56;;;;;;;;;0.00;0.00;;;;;;;;5072841;28;11359;-73
2023/05/02 04:04:21;;;;;;;;;0.00;0.00;;;;;;;;5072730;28;11385;-74
2023/05/02 04:06:47;;;;;;;;;0.00;0.00;;;;;;;;5071223;28;9781;-74
2023/05/02 04:09:12;;;;;;;;;0.00;0.00;;;;;;;;5072754;28;8798;-74
2023/05/02 04:11:37;;;;;;;;;0.00;0.00;;;;;;;;5072680;28;8794;-74
2023/05/02 04:14:03;;;;;;;;;0.00;0.00;;;;;;;;5072742;28;8921;-73
2023/05/02 04:16:28;;;;;;;;;0.00;0.00;;;;;;;;5072779;28;8864;-74
2023/05/02 04:18:53;;;;;;;;;1.00;0.00;;;;;;;;5069393;28;9553;-74
2023/05/02 04:21:19;;;;;;;;;0.00;0.00;;;;;;;;5072573;28;8809;-74
2023/05/02 04:23:44;;;;;;;;;0.00;0.00;;;;;;;;5072254;28;8882;-70
2023/05/02 04:26:09;;;;;;;;;0.00;0.00;;;;;;;;5072260;28;8921;-71
2023/05/02 04:28:35;;;;;;;;;0.00;0.00;;;;;;;;5072393;28;8798;-74
2023/05/02 04:31:02;;;;;;;;;0.00;0.00;;;;;;;;5072568;28;8819;-73
2023/05/02 04:33:27;;;;;;;;;0.00;0.00;;;;;;;;5052933;28;9543;-74
2023/05/02 04:35:52;;;;;;;;;0.00;0.00;;;;;;;;5052045;28;11440;-73
2023/05/02 04:38:20;;;;;;;;;0.00;0.00;;;;;;;;5050721;28;9527;-74
2023/05/02 04:40:45;;;;;;;;;0.00;0.00;;;;;;;;5052419;28;8808;-73
2023/05/02 04:43:10;;;;;;;;;5.00;5.00;;;;;;;;5070305;28;11380;-74
2023/05/02 04:45:36;;;;;;;;;1.50;0.00;;;;;;;;5072097;28;8899;-74
2023/05/02 04:48:02;;;;;;;;;0.00;0.00;;;;;;;;5062574;28;8826;-73
2023/05/02 04:50:31;;;;;;;;;0.00;0.00;;;;;;;;5054483;28;8797;-74
2023/05/02 04:52:56;;;;;;;;;1.00;0.00;;;;;;;;5048788;28;11421;-77
2023/05/02 04:55:21;;;;;;;;;0.00;0.00;;;;;;;;5051365;28;11471;-76
2023/05/02 04:57:47;;;;;;;;;0.00;0.00;;;;;;;;5051815;28;8797;-71
2023/05/02 05:00:12;;;;;;;;;0.00;0.00;;;;;;;;5052008;28;8805;-76
2023/05/02 05:02:38;;;;;;;;;0.00;0.00;;;;;;;;5051955;28;8801;-77
2023/05/02 05:05:04;;;;;;;;;0.00;0.00;;;;;;;;5051835;28;8840;-78
2023/05/02 05:07:29;;;;;;;;;0.00;0.00;;;;;;;;5051867;28;11554;-76
2023/05/02 05:09:55;;;;;;;;;0.00;0.00;;;;;;;;5062197;28;8815;-78
2023/05/02 05:12:20;;;;;;;;;0.00;0.00;;;;;;;;5071485;28;8806;-73
2023/05/02 05:14:45;;;;;;;;;2.25;0.00;;;;;;;;5071863;28;8830;-78
2023/05/02 05:17:10;;;;;;;;;0.00;0.00;;;;;;;;5067006;28;8819;-75
2023/05/02 05:19:36;;;;;;;;;1.00;0.00;;;;;;;;5071715;28;8795;-75
2023/05/02 05:22:01;;;;;;;;;0.00;0.00;;;;;;;;5071831;28;8804;-77
2023/05/02 05:24:26;;;;;;;;;0.00;0.00;;;;;;;;5065701;28;8786;-78
2023/05/02 05:26:52;;;;;;;;;0.25;0.00;;;;;;;;5086991;28;8821;-77
2023/05/02 05:29:18;;;;;;;;;1.00;0.00;;;;;;;;5071632;28;8787;-77
2023/05/02 05:31:43;;;;;;;;;0.00;0.00;;;;;;;;5066660;28;8847;-72
2023/05/02 05:34:08;;;;;;;;;0.00;0.00;;;;;;;;5069481;28;8811;-75
2023/05/02 05:36:34;;;;;;;;;0.00;0.00;;;;;;;;5070822;28;9514;-74
2023/05/02 05:38:59;;;;;;;;;0.00;0.00;;;;;;;;5071145;28;8802;-76
2023/05/02 05:41:24;;;;;;;;;0.00;0.00;;;;;;;;5071254;28;8917;-75
2023/05/02 05:43:52;;;;;;;;;0.25;0.00;;;;;;;;5069741;28;8907;-72
2023/05/02 05:46:18;;;;;;;;;0.75;0.00;;;;;;;;5070482;28;8853;-75
2023/05/02 05:48:43;;;;;;;;;0.00;0.00;;;;;;;;5067724;28;11398;-73
2023/05/02 05:51:08;;;;;;;;;0.00;0.00;;;;;;;;5051347;28;8878;-75
2023/05/02 05:53:34;;;;;;;;;0.75;0.00;;;;;;;;5050733;28;8804;-69
2023/05/02 05:56:07;;;;;;;;;2.00;0.00;;;;;;;;5052696;28;8851;-81
2023/05/02 05:58:32;;;;;;;;;0.00;0.00;;;;;;;;5051144;28;9002;-73
2023/05/02 06:00:57;;;;;;;;;0.00;0.00;;;;;;;;5057812;28;11393;-74
2023/05/02 06:03:22;;;;;;;;;0.75;0.00;;;;;;;;5069695;28;8813;-73
2023/05/02 06:05:48;;;;;;;;;0.00;0.00;;;;;;;;5070193;28;8907;-75
2023/05/02 06:08:13;;;;;;;;;0.00;0.00;;;;;;;;5070117;28;8786;-72
2023/05/02 06:10:38;;;;;;;;;0.00;0.00;;;;;;;;5058868;28;8894;-73
2023/05/02 06:13:03;;;;;;;;;0.00;0.00;;;;;;;;5065189;28;8833;-73
2023/05/02 06:15:29;;;;;;;;;0.00;0.00;;;;;;;;5049832;28;9575;-72
2023/05/02 06:17:54;;;;;;;;;0.00;0.00;;;;;;;;5050297;28;8931;-71
2023/05/02 06:20:19;;;;;;;;;0.00;0.00;;;;;;;;5049449;28;9544;-72
2023/05/02 06:22:45;;;;;;;;;0.00;0.00;;;;;;;;5050469;28;8766;-71
2023/05/02 06:25:10;;;;;;;;;0.00;0.00;;;;;;;;5050472;28;8797;-72
2023/05/02 06:27:36;;;;;;;;;0.00;0.00;;;;;;;;5049106;28;9645;-72
2023/05/02 06:30:01;;;;;;;;;0.00;0.00;;;;;;;;5049178;28;8852;-72
2023/05/02 06:32:32;;;;;;;;;0.00;0.00;;;;;;;;5069730;28;8822;-72
2023/05/02 06:34:57;;;;;;;;;1.00;0.00;;;;;;;;5070246;28;8779;-72
2023/05/02 06:37:23;;;;;;;;;0.00;0.00;;;;;;;;5069843;28;11481;-71
2023/05/02 06:39:48;;;;;;;;;0.00;0.00;;;;;;;;5068799;28;8826;-73
2023/05/02 06:42:14;;;;;;;;;0.00;0.00;;;;;;;;5069447;28;8794;-76
2023/05/02 06:44:39;;;;;;;;;0.00;0.00;;;;;;;;5068884;28;8936;-73
2023/05/02 06:47:06;;;;;;;;;0.00;0.00;;;;;;;;5069939;28;8786;-76
2023/05/02 06:49:31;;;;;;;;;0.00;0.00;;;;;;;;5068338;28;8787;-71
2023/05/02 06:51:56;;;;;;;;;0.00;0.00;;;;;;;;5069477;28;10862;-71
2023/05/02 06:54:22;;;;;;;;;0.00;0.00;;;;;;;;5069120;28;8837;-72
2023/05/02 06:56:47;;;;;;;;;0.00;0.00;;;;;;;;5069079;28;8943;-72
2023/05/02 06:59:12;;;;;;;;;0.00;0.00;;;;;;;;5058214;28;8922;-72
2023/05/02 07:01:37;;;;;;;;;0.00;0.00;;;;;;;;5061853;28;8824;-71
2023/05/02 07:04:04;;;;;;;;;0.00;0.00;;;;;;;;5049739;28;8808;-72
2023/05/02 07:06:30;;;;;;;;;0.00;0.00;;;;;;;;5048220;28;9556;-72
2023/05/02 07:09:01;;;;;;;;;0.00;0.00;;;;;;;;5049305;28;10919;-75
2023/05/02 07:11:26;;;;;;;;;0.00;0.00;;;;;;;;5047558;28;8997;-70
2023/05/02 07:13:52;;;;;;;;;0.00;0.00;;;;;;;;5049173;28;10779;-72
2023/05/02 07:16:17;;;;;;;;;0.00;0.00;;;;;;;;5051080;28;8953;-71
2023/05/02 07:18:44;;;;;;;;;0.00;0.00;;;;;;;;5060384;28;8807;-74
2023/05/02 07:21:10;;;;;;;;;4.00;0.50;;;;;;;;5051367;28;8916;-73
2023/05/02 07:23:35;;;;;;;;;0.00;0.00;;;;;;;;5049039;28;10831;-73
2023/05/02 07:26:01;;;;;;;;;0.00;0.00;;;;;;;;5062248;28;8905;-72
2023/05/02 07:28:26;;;;;;;;;0.00;0.00;;;;;;;;5056507;28;8801;-84
2023/05/02 07:30:51;;;;;;;;;0.00;0.00;;;;;;;;5059346;28;8827;-74
2023/05/02 07:33:17;;;;;;;;;0.00;0.00;;;;;;;;5059925;28;8921;-77
2023/05/02 07:35:42;;;;;;;;;0.00;0.00;;;;;;;;5062188;28;8957;-72
2023/05/02 07:38:10;;;;;;;;;1.00;0.00;;;;;;;;5061775;28;8857;-73
2023/05/02 07:40:35;;;;;;;;;0.25;0.00;;;;;;;;5058161;28;9567;-69
2023/05/02 07:43:01;;;;;;;;;0.00;0.00;;;;;;;;5049721;28;10496;-74
2023/05/02 07:45:26;;;;;;;;;0.00;0.00;;;;;;;;5053918;28;8855;-73
2023/05/02 07:47:51;;;;;;;;;0.00;0.00;;;;;;;;5054404;28;8819;-80
2023/05/02 07:50:17;;;;;;;;;0.00;0.00;;;;;;;;5052138;28;8823;-76
2023/05/02 07:52:42;;;;;;;;;0.00;0.00;;;;;;;;5049277;28;8912;-76
2023/05/02 07:55:07;;;;;;;;;0.00;0.00;;;;;;;;5065383;28;8892;-74
2023/05/02 07:57:33;;;;;;;;;0.00;0.00;;;;;;;;5068750;28;8899;-70
2023/05/02 07:59:58;;;;;;;;;0.00;0.00;;;;;;;;5068950;28;8798;-70
2023/05/02 08:02:24;;;;;;;;;0.00;0.00;;;;;;;;5051047;28;8833;-72
2023/05/02 08:04:50;;;;;;;;;0.00;0.00;;;;;;;;5048946;28;8788;-71
2023/05/02 08:07:15;;;;;;;;;0.00;0.00;;;;;;;;5048383;28;9702;-73
2023/05/02 08:09:43;;;;;;;;;0.00;0.00;;;;;;;;5064366;28;8801;-69
2023/05/02 08:12:08;;;;;;;;;0.00;0.00;;;;;;;;5051349;28;8806;-71
2023/05/02 08:14:34;;;;;;;;;0.00;0.00;;;;;;;;5064747;28;9847;-73
2023/05/02 08:16:59;;;;;;;;;0.00;0.00;;;;;;;;5068373;28;8806;-68
2023/05/02 08:19:25;;;;;;;;;0.00;0.00;;;;;;;;5069045;28;8799;-70
2023/05/02 08:21:52;;;;;;;;;0.00;0.00;;;;;;;;5068719;28;8809;-65
2023/05/02 08:24:17;;;;;;;;;0.00;0.00;;;;;;;;5056055;28;8835;-70
2023/05/02 08:26:42;;;;;;;;;0.00;0.00;;;;;;;;5048805;28;9587;-68
2023/05/02 08:29:10;;;;;;;;;0.00;0.00;;;;;;;;5048985;28;8781;-66
2023/05/02 08:31:35;;;;;;;;;0.00;0.00;;;;;;;;5061204;28;8810;-69
2023/05/02 08:34:01;;;;;;;;;0.00;0.00;;;;;;;;5051006;28;9643;-70
2023/05/02 08:36:27;;;;;;;;;0.00;0.00;;;;;;;;5068454;28;8822;-71
2023/05/02 08:38:53;;;;;;;;;0.00;0.00;;;;;;;;5054105;28;8813;-70
2023/05/02 08:41:18;;;;;;;;;0.00;0.00;;;;;;;;5047238;28;9802;-69
2023/05/02 08:43:49;;;;;;;;;0.00;0.00;;;;;;;;5049819;28;8916;-67
2023/05/02 08:46:16;;;;;;;;;0.00;0.00;;;;;;;;5052134;28;8998;-68
2023/05/02 08:48:42;;;;;;;;;0.00;0.00;;;;;;;;5058457;28;9835;-67
2023/05/02 08:51:08;;;;;;;;;1.00;0.00;;;;;;;;5072174;28;9897;-68
2023/05/02 08:53:35;;;;;;;;;0.00;0.00;;;;;;;;5072187;28;10004;-67
2023/05/02 08:56:00;;;;;;;;;0.00;0.00;;;;;;;;5072230;28;9808;-68
2023/05/02 08:58:25;;;;;;;;;0.00;0.00;;;;;;;;5072078;28;9866;-70
2023/05/02 09:00:51;;;;;;;;;0.00;0.00;;;;;;;;5071208;28;8786;-67
2023/05/02 09:03:20;;;;;;;;;0.00;0.00;;;;;;;;5072087;28;8802;-67
2023/05/02 09:05:50;;;;;;;;;0.00;0.00;;;;;;;;5072245;28;8802;-67
2023/05/02 09:08:20;;;;;;;;;1.00;1.00;;;;;;;;5072289;28;10216;-67
2023/05/02 09:10:46;;;;;;;;;0.00;0.00;;;;;;;;5070708;28;10421;-67
2023/05/02 09:13:27;;;;;;;;;0.00;0.00;;;;;;;;5071913;28;10118;-67
2023/05/02 09:15:59;;;;;;;;;0.00;0.00;;;;;;;;5072096;28;9593;-67
2023/05/02 09:18:27;;;;;;;;;0.00;0.00;;;;;;;;5070945;28;9934;-67
2023/05/02 09:20:52;;;;;;;;;0.00;0.00;;;;;;;;5071041;28;10031;-66
2023/05/02 09:23:18;;;;;;;;;0.00;0.00;;;;;;;;5071893;28;10014;-66
2023/05/02 09:25:43;;;;;;;;;0.00;0.00;;;;;;;;5071944;28;8783;-66
2023/05/02 09:28:08;;;;;;;;;0.00;0.00;;;;;;;;5071860;28;8794;-66
2023/05/02 09:30:33;;;;;;;;;0.00;0.00;;;;;;;;5069832;28;9593;-67
2023/05/02 09:32:59;;;;;;;;;0.00;0.00;;;;;;;;5071543;28;8797;-67
2023/05/02 09:35:24;;;;;;;;;0.00;0.00;;;;;;;;5071481;28;8810;-65
2023/05/02 09:37:51;;;;;;;;;0.00;0.00;;;;;;;;5070257;28;8821;-67
2023/05/02 09:40:16;;;;;;;;;0.00;0.00;;;;;;;;5070236;28;8829;-66
2023/05/02 09:42:41;;;;;;;;;0.00;0.00;;;;;;;;5071453;28;10102;-67
2023/05/02 09:45:07;;;;;;;;;0.50;0.00;;;;;;;;5070372;28;8875;-67
2023/05/02 09:47:32;;;;;;;;;0.00;0.00;;;;;;;;5070161;28;8866;-66
2023/05/02 09:49:58;;;;;;;;;0.00;0.00;;;;;;;;5069851;28;8802;-70
2023/05/02 09:52:23;;;;;;;;;0.00;0.00;;;;;;;;5070637;28;8803;-66
2023/05/02 09:54:52;;;;;;;;;0.00;0.00;;;;;;;;5064972;28;8899;-67
2023/05/02 09:57:17;;;;;;;;;0.00;0.00;;;;;;;;5083351;28;9016;-66
2023/05/02 09:59:53;;;;;;;;;0.00;0.00;;;;;;;;5071051;28;10007;-67
2023/05/02 10:02:20;;;;;;;;;0.00;0.00;;;;;;;;5064234;28;8900;-67
2023/05/02 10:04:46;;;;;;;;;0.00;0.00;;;;;;;;5065316;28;11098;-67
2023/05/02 10:07:13;;;;;;;;;0.00;0.00;;;;;;;;5061710;28;10226;-67
2023/05/02 10:09:41;;;;;;;;;0.00;0.00;;;;;;;;5050283;28;10138;-66
2023/05/02 10:12:07;;;;;;;;;0.00;0.00;;;;;;;;5061277;28;10415;-66
2023/05/02 10:14:38;;;;;;;;;0.00;0.00;;;;;;;;5068604;28;10332;-66
2023/05/02 10:17:07;;;;;;;;;0.00;0.00;;;;;;;;5065542;28;8838;-66
2023/05/02 10:19:41;;;;;;;;;0.00;0.00;;;;;;;;5069338;28;10303;-64
2023/05/02 10:22:06;;;;;;;;;0.00;0.00;;;;;;;;5070189;28;10352;-64
2023/05/02 10:24:32;;;;;;;;;0.00;0.00;;;;;;;;5070255;28;10400;-67
2023/05/02 10:26:58;;;;;;;;;0.00;0.00;;;;;;;;5060867;28;8842;-67
2023/05/02 10:29:27;;;;;;;;;0.00;0.00;;;;;;;;5065369;28;8852;-67
2023/05/02 10:31:54;;;;;;;;;0.00;0.00;;;;;;;;5065010;28;8881;-70
2023/05/02 10:34:20;;;;;;;;;0.00;0.00;;;;;;;;5059665;28;10418;-68
2023/05/02 10:36:45;;;;;;;;;0.00;0.00;;;;;;;;5068618;28;10244;-67
2023/05/02 10:39:11;;;;;;;;;0.00;0.00;;;;;;;;5069856;28;10150;-68
2023/05/02 10:41:38;;;;;;;;;1.00;0.00;;;;;;;;5061684;28;8833;-65
2023/05/02 10:44:06;;;;;;;;;0.00;0.00;;;;;;;;5053633;28;11548;-66
2023/05/02 10:46:35;;;;;;;;;0.25;0.00;;;;;;;;5069623;28;10018;-65
2023/05/02 10:49:08;;;;;;;;;0.00;0.00;;;;;;;;5069737;28;10245;-66
2023/05/02 10:51:35;;;;;;;;;0.00;0.00;;;;;;;;5063408;28;10161;-66
2023/05/02 10:54:19;;;;;;;;;0.00;0.00;;;;;;;;5069715;28;10118;-68
2023/05/02 10:57:04;;;;;;;;;0.00;0.00;;;;;;;;5069464;28;10211;-70
2023/05/02 10:59:31;;;;;;;;;0.00;0.00;;;;;;;;5053446;28;10167;-67
2023/05/02 11:01:56;;;;;;;;;0.00;0.00;;;;;;;;5064614;28;10849;-67
2023/05/02 11:04:22;;;;;;;;;0.00;0.00;;;;;;;;5061954;28;10025;-68
2023/05/02 11:06:57;;;;;;;;;0.00;0.00;;;;;;;;5057560;28;9563;-68
2023/05/02 11:09:23;;;;;;;;;0.00;0.00;;;;;;;;5059109;28;8807;-68
2023/05/02 11:11:51;;;;;;;;;0.00;0.00;;;;;;;;5058979;28;10008;-69
2023/05/02 11:14:29;;;;;;;;;0.00;0.00;;;;;;;;5058642;28;8799;-68
2023/05/02 11:16:58;;;;;;;;;0.00;0.00;;;;;;;;5058107;28;10279;-69
2023/05/02 11:19:27;;;;;;;;;0.00;0.00;;;;;;;;5059066;28;10203;-69
2023/05/02 11:22:13;;;;;;;;;0.00;0.00;;;;;;;;5058693;28;11014;-69
2023/05/02 11:24:43;;;;;;;;;0.00;0.00;;;;;;;;5058840;28;11041;-69
2023/05/02 11:27:27;;;;;;;;;0.00;0.00;;;;;;;;5056547;28;10276;-69
2023/05/02 11:29:56;;;;;;;;;0.00;0.00;;;;;;;;5058786;28;10296;-69
2023/05/02 11:32:21;;;;;;;;;0.00;0.00;;;;;;;;5061175;28;10360;-69
2023/05/02 11:34:51;;;;;;;;;0.00;0.00;;;;;;;;5056295;28;11106;-69
2023/05/02 11:37:17;;;;;;;;;0.00;0.00;;;;;;;;5056610;28;8885;-69
2023/05/02 11:39:42;;;;;;;;;0.00;0.00;;;;;;;;5056170;28;10109;-69
2023/05/02 11:42:08;;;;;;;;;0.00;0.00;;;;;;;;5055981;28;11496;-69
2023/05/02 11:44:34;;;;;;;;;0.00;0.00;;;;;;;;5057896;28;8797;-68
2023/05/02 11:47:01;;;;;;;;;0.00;0.00;;;;;;;;5057098;28;8814;-69
2023/05/02 11:49:26;;;;;;;;;0.00;0.00;;;;;;;;5056569;28;10406;-69
2023/05/02 11:51:52;;;;;;;;;0.00;0.00;;;;;;;;5063983;28;10317;-69
2023/05/02 11:54:18;;;;;;;;;0.00;0.00;;;;;;;;5066887;28;8807;-69
2023/05/02 11:56:44;;;;;;;;;0.00;0.00;;;;;;;;5067322;28;8845;-69
2023/05/02 11:59:10;;;;;;;;;0.00;0.00;;;;;;;;5063040;28;10248;-69
2023/05/02 12:01:35;;;;;;;;;0.00;0.00;;;;;;;;5076977;28;8809;-69
2023/05/02 12:04:02;;;;;;;;;3.00;2.00;;;;;;;;5057389;28;8824;-69
2023/05/02 12:06:27;;;;;;;;;0.00;0.00;;;;;;;;5049230;28;9536;-70
2023/05/02 12:09:04;;;;;;;;;0.00;0.00;;;;;;;;5060075;28;10292;-68
2023/05/02 12:11:30;;;;;;;;;0.00;0.00;;;;;;;;5068112;28;8794;-66
2023/05/02 12:13:55;;;;;;;;;0.00;0.00;;;;;;;;5068471;28;11033;-68
2023/05/02 12:16:21;;;;;;;;;0.00;0.00;;;;;;;;5062478;28;8885;-67
2023/05/02 12:18:47;;;;;;;;;0.00;0.00;;;;;;;;5060920;28;8790;-67
2023/05/02 12:21:12;;;;;;;;;0.00;0.00;;;;;;;;5062251;28;8789;-67
2023/05/02 12:23:38;;;;;;;;;0.00;0.00;;;;;;;;5061538;28;8799;-66
2023/05/02 12:26:20;;;;;;;;;0.00;0.00;;;;;;;;5063486;28;8841;-67
2023/05/02 12:28:49;;;;;;;;;0.00;0.00;;;;;;;;5069099;28;9079;-66
2023/05/02 12:31:15;;;;;;;;;0.00;0.00;;;;;;;;5065644;28;10371;-66
2023/05/02 12:33:41;;;;;;;;;0.00;0.00;;;;;;;;5055056;28;10364;-68
2023/05/02 12:36:08;;;;;;;;;1.00;0.25;;;;;;;;5055064;28;8980;-66
2023/05/02 12:38:34;;;;;;;;;8.00;5.00;;;;;;;;5063014;28;10267;-67
2023/05/02 12:41:00;;;;;;;;;3.75;2.25;;;;;;;;5064425;28;10709;-68
2023/05/02 12:43:25;;;;;;;;;6.00;5.00;;;;;;;;5072228;28;10589;-68
2023/05/02 12:46:08;;;;;;;;;0.00;0.00;;;;;;;;5058635;28;8833;-68
2023/05/02 12:48:33;;;;;;;;;1.00;1.00;;;;;;;;5069407;28;8813;-68
2023/05/02 12:50:58;;;;;;;;;0.00;0.00;;;;;;;;5062538;28;10475;-68
2023/05/02 12:53:40;;;;;;;;;2.00;1.50;;;;;;;;5072255;28;8783;-67
2023/05/02 12:56:06;;;;;;;;;0.00;0.00;;;;;;;;5072010;28;8964;-68
2023/05/02 12:59:03;;;;;;;;;0.00;0.00;;;;;;;;5071910;28;10279;-68
2023/05/02 13:01:30;;;;;;;;;0.00;0.00;;;;;;;;5071220;28;8911;-67
2023/05/02 13:03:55;;;;;;;;;0.00;0.00;;;;;;;;5071693;28;10250;-68
2023/05/02 13:06:20;;;;;;;;;0.00;0.00;;;;;;;;5071801;28;10421;-68
2023/05/02 13:08:45;;;;;;;;;0.00;0.00;;;;;;;;5071927;28;8795;-68
2023/05/02 13:11:12;;;;;;;;;0.00;0.00;;;;;;;;5071756;28;8805;-68
2023/05/02 13:13:37;;;;;;;;;0.00;0.00;;;;;;;;5065719;28;8845;-68
2023/05/02 13:16:02;;;;;;;;;0.00;0.00;;;;;;;;5061327;28;11183;-69
2023/05/02 13:18:28;;;;;;;;;0.00;0.00;;;;;;;;5058254;28;8920;-68
2023/05/02 13:20:53;;;;;;;;;0.00;0.00;;;;;;;;5051479;28;8812;-69
2023/05/02 13:23:18;;;;;;;;;0.00;0.00;;;;;;;;5051413;28;8789;-68
2023/05/02 13:25:43;;;;;;;;;0.00;0.00;;;;;;;;5050111;28;8836;-68
2023/05/02 13:28:09;;;;;;;;;0.00;0.00;;;;;;;;5051613;28;8773;-68
2023/05/02 13:30:34;;;;;;;;;0.00;0.00;;;;;;;;5055310;28;8834;-68
2023/05/02 13:33:00;;;;;;;;;0.00;0.00;;;;;;;;5071247;28;8818;-68
2023/05/02 13:35:25;;;;;;;;;0.00;0.00;;;;;;;;5071241;28;8783;-68
2023/05/02 13:37:50;;;;;;;;;0.00;0.00;;;;;;;;5064831;28;8959;-67
2023/05/02 13:40:16;;;;;;;;;0.00;0.00;;;;;;;;5049868;28;8833;-68
2023/05/02 13:42:41;;;;;;;;;1.00;0.00;;;;;;;;5050845;28;8817;-67
2023/05/02 13:45:07;;;;;;;;;0.00;0.00;;;;;;;;5059666;28;8844;-66
2023/05/02 13:47:32;;;;;;;;;0.00;0.00;;;;;;;;5070817;28;8988;-67
2023/05/02 13:49:58;;;;;;;;;1.00;0.00;;;;;;;;5067694;28;8892;-67
2023/05/02 13:52:23;;;;;;;;;0.00;0.00;;;;;;;;5070582;28;8824;-66
2023/05/02 13:54:49;;;;;;;;;0.00;0.00;;;;;;;;5068948;28;8826;-67
2023/05/02 13:57:14;;;;;;;;;0.00;0.00;;;;;;;;5067992;28;8907;-67
2023/05/02 13:59:40;;;;;;;;;0.00;0.00;;;;;;;;5053898;28;8936;-67
2023/05/02 14:02:06;;;;;;;;;0.00;0.00;;;;;;;;5062191;28;8777;-68
2023/05/02 14:04:31;;;;;;;;;0.00;0.00;;;;;;;;5050558;28;9574;-67
2023/05/02 14:06:56;;;;;;;;;0.00;0.00;;;;;;;;5050454;28;8797;-68
2023/05/02 14:09:21;;;;;;;;;0.00;0.00;;;;;;;;5050032;28;8805;-66
2023/05/02 14:11:47;;;;;;;;;0.00;0.00;;;;;;;;5050012;28;8904;-67
2023/05/02 14:14:13;;;;;;;;;0.00;0.00;;;;;;;;5050427;28;8821;-68
2023/05/02 14:16:38;;;;;;;;;0.00;0.00;;;;;;;;5050076;28;11402;-65
2023/05/02 14:19:04;;;;;;;;;0.00;0.00;;;;;;;;5050046;28;8805;-65
2023/05/02 14:21:30;;;;;;;;;0.00;0.00;;;;;;;;5050083;28;8986;-64
2023/05/02 14:23:56;;;;;;;;;0.00;0.00;;;;;;;;5070030;28;8790;-66
2023/05/02 14:26:21;;;;;;;;;0.00;0.00;;;;;;;;5069638;28;10246;-64
2023/05/02 14:28:46;;;;;;;;;0.00;0.00;;;;;;;;5069458;28;8891;-68
2023/05/02 14:31:12;;;;;;;;;0.00;0.00;;;;;;;;5069757;28;8915;-63
